createdAt,value
2022-12-14T00:01:15.433Z,26.55
2022-12-14T00:03:42.050Z,26.18
2022-12-14T00:06:13.486Z,25.65
2022-12-14T00:08:41.992Z,25.04
2022-12-14T00:11:09.903Z,25.61
2022-12-14T00:13:37.354Z,25.73
2022-12-14T00:16:23.670Z,25.73
2022-12-14T00:18:53.256Z,25.85
2022-12-14T00:21:20.329Z,25.60
2022-12-14T00:23:48.992Z,26.47
2022-12-14T00:26:19.696Z,26.59
2022-12-14T00:28:49.479Z,26.96
2022-12-14T00:31:16.981Z,26.66
2022-12-14T00:33:43.627Z,27.36
2022-12-14T00:36:11.801Z,27.48
2022-12-14T00:38:39.285Z,27.00
2022-12-14T00:41:05.892Z,27.57
2022-12-14T00:43:32.545Z,27.58
2022-12-14T00:45:59.154Z,27.30
2022-12-14T00:48:27.171Z,27.23
2022-12-14T00:50:55.529Z,27.07
2022-12-14T00:53:23.899Z,27.98
2022-12-14T00:55:51.597Z,27.79
2022-12-14T00:58:22.883Z,28.04
2022-12-14T01:01:01.363Z,28.79
2022-12-14T01:03:28.632Z,28.70
2022-12-14T01:05:56.134Z,28.92
2022-12-14T01:08:23.956Z,28.97
2022-12-14T01:10:51.354Z,28.73
2022-12-14T01:13:19.110Z,29.14
2022-12-14T01:15:46.162Z,29.43
2022-12-14T01:18:13.193Z,29.43
2022-12-14T01:20:40.244Z,29.13
2022-12-14T01:23:07.259Z,29.24
2022-12-14T01:25:34.241Z,28.96
2022-12-14T01:28:00.836Z,29.73
2022-12-14T01:30:27.666Z,30.44
2022-12-14T01:32:54.405Z,30.12
2022-12-14T01:35:20.997Z,29.54
2022-12-14T01:37:48.912Z,29.51
2022-12-14T01:40:16.329Z,29.64
2022-12-14T01:42:42.790Z,29.79
2022-12-14T01:45:21.115Z,29.64
2022-12-14T01:47:54.869Z,30.33
2022-12-14T01:50:37.642Z,30.49
2022-12-14T01:53:14.394Z,30.90
2022-12-14T01:55:48.835Z,31.08
2022-12-14T01:58:24.225Z,30.76
2022-12-14T02:00:55.505Z,30.22
2022-12-14T02:03:29.802Z,30.74
2022-12-14T02:06:03.523Z,30.16
2022-12-14T02:08:31.030Z,30.51
2022-12-14T02:10:58.885Z,30.12
2022-12-14T02:13:32.298Z,30.32
2022-12-14T02:15:58.909Z,30.71
2022-12-14T02:18:28.846Z,29.82
2022-12-14T02:21:18.152Z,30.30
2022-12-14T02:24:13.408Z,30.33
2022-12-14T02:27:10.588Z,30.23
2022-12-14T02:29:42.838Z,30.78
2022-12-14T02:32:09.228Z,31.36
2022-12-14T02:34:57.913Z,31.54
2022-12-14T02:38:01.861Z,30.80
2022-12-14T02:40:57.633Z,31.34
2022-12-14T02:43:30.034Z,30.76
2022-12-14T02:46:05.164Z,30.35
2022-12-14T02:48:39.138Z,30.01
2022-12-14T02:51:24.023Z,29.98
2022-12-14T02:54:13.004Z,30.22
2022-12-14T02:56:55.300Z,31.41
2022-12-14T02:59:24.462Z,30.76
2022-12-14T03:01:53.255Z,31.33
2022-12-14T03:04:19.791Z,30.84
2022-12-14T03:07:00.151Z,31.20
2022-12-14T03:09:30.833Z,32.05
2022-12-14T03:12:09.758Z,32.35
2022-12-14T03:14:43.269Z,31.50
2022-12-14T03:17:24.624Z,31.36
2022-12-14T03:19:56.411Z,32.09
2022-12-14T03:22:38.200Z,31.50
2022-12-14T03:25:14.709Z,31.45
2022-12-14T03:27:50.802Z,32.15
2022-12-14T03:30:37.207Z,32.66
2022-12-14T03:33:13.617Z,32.61
2022-12-14T03:35:49.869Z,31.69
2022-12-14T03:38:35.750Z,32.20
2022-12-14T03:41:14.014Z,31.98
2022-12-14T03:44:30.757Z,31.07
2022-12-14T03:47:35.445Z,31.81
2022-12-14T03:50:04.678Z,31.43
2022-12-14T03:52:47.600Z,30.93
2022-12-14T03:55:57.471Z,31.51
2022-12-14T03:58:44.058Z,31.46
2022-12-14T04:01:39.657Z,31.33
2022-12-14T04:04:22.419Z,32.01
2022-12-14T04:07:08.380Z,30.58
2022-12-14T04:09:46.318Z,29.91
2022-12-14T04:12:18.207Z,30.50
2022-12-14T04:15:11.536Z,30.44
2022-12-14T04:18:07.271Z,30.90
2022-12-14T04:20:45.918Z,31.47
2022-12-14T04:23:24.496Z,30.45
2022-12-14T04:25:52.481Z,29.83
2022-12-14T04:28:42.011Z,28.74
2022-12-14T04:31:14.807Z,26.92
2022-12-14T04:33:52.588Z,25.89
2022-12-14T04:36:32.200Z,25.45
2022-12-14T04:39:08.143Z,25.20
2022-12-14T04:41:46.091Z,25.45
2022-12-14T04:44:24.028Z,25.02
2022-12-14T04:46:53.947Z,24.93
2022-12-14T04:49:29.791Z,24.82
2022-12-14T04:52:05.700Z,24.39
2022-12-14T04:54:43.296Z,23.37
2022-12-14T04:57:28.712Z,24.06
2022-12-14T04:59:57.498Z,23.02
2022-12-14T05:02:48.164Z,22.63
2022-12-14T05:05:24.165Z,23.47
2022-12-14T05:08:07.043Z,22.79
2022-12-14T05:10:51.032Z,23.37
2022-12-14T05:13:30.943Z,23.52
2022-12-14T05:15:59.167Z,24.26
2022-12-14T05:18:26.021Z,24.17
2022-12-14T05:20:52.617Z,24.61
2022-12-14T05:23:19.101Z,25.06
2022-12-14T05:25:45.708Z,25.38
2022-12-14T05:28:15.735Z,25.83
2022-12-14T05:30:42.506Z,25.80
2022-12-14T05:33:18.841Z,25.73
2022-12-14T05:35:45.404Z,25.89
2022-12-14T05:38:11.867Z,25.36
2022-12-14T05:40:38.753Z,24.32
2022-12-14T05:43:07.103Z,23.68
2022-12-14T05:45:33.595Z,22.86
2022-12-14T05:48:00.160Z,22.75
2022-12-14T05:50:26.634Z,21.90
2022-12-14T05:52:53.852Z,21.44
2022-12-14T05:55:20.340Z,20.85
2022-12-14T05:57:46.809Z,20.99
2022-12-14T06:00:13.973Z,21.00
2022-12-14T06:02:40.535Z,20.30
2022-12-14T06:05:07.350Z,19.51
2022-12-14T06:07:33.858Z,19.00
2022-12-14T06:10:00.340Z,18.95
2022-12-14T06:12:28.282Z,18.96
2022-12-14T06:14:54.721Z,19.07
2022-12-14T06:17:21.172Z,19.22
2022-12-14T06:19:49.792Z,18.93
2022-12-14T06:22:17.491Z,19.03
2022-12-14T06:24:43.944Z,20.05
2022-12-14T06:27:10.418Z,19.49
2022-12-14T06:29:36.883Z,20.01
2022-12-14T06:32:03.364Z,19.82
2022-12-14T06:34:33.934Z,20.58
2022-12-14T06:37:03.281Z,20.46
2022-12-14T06:39:29.880Z,19.04
2022-12-14T06:41:56.322Z,18.50
2022-12-14T06:44:22.859Z,17.54
2022-12-14T06:46:49.455Z,17.95
2022-12-14T06:49:16.413Z,16.96
2022-12-14T06:51:43.638Z,16.99
2022-12-14T06:54:12.362Z,17.36
2022-12-14T06:56:40.088Z,17.19
2022-12-14T06:59:06.679Z,16.87
2022-12-14T07:01:33.246Z,16.77
2022-12-14T07:03:59.845Z,18.03
2022-12-14T07:06:31.071Z,19.35
2022-12-14T07:08:59.848Z,19.46
2022-12-14T07:11:29.065Z,20.30
2022-12-14T07:13:56.735Z,20.78
2022-12-14T07:16:27.354Z,21.77
2022-12-14T07:18:54.844Z,23.25
2022-12-14T07:21:22.949Z,23.61
2022-12-14T07:23:50.021Z,25.52
2022-12-14T07:26:25.516Z,27.49
2022-12-14T07:28:53.100Z,29.12
2022-12-14T07:31:23.804Z,29.30
2022-12-14T07:33:53.816Z,27.95
2022-12-14T07:36:22.040Z,27.35
2022-12-14T07:38:50.570Z,26.92
2022-12-14T07:41:23.663Z,26.74
2022-12-14T07:43:51.850Z,26.61
2022-12-14T07:46:23.371Z,27.35
2022-12-14T07:48:55.808Z,28.00
2022-12-14T07:51:25.969Z,28.58
2022-12-14T07:53:54.379Z,30.13
2022-12-14T07:56:24.041Z,30.59
2022-12-14T07:58:50.883Z,28.27
2022-12-14T08:01:20.062Z,24.33
2022-12-14T08:03:49.691Z,23.43
2022-12-14T08:06:18.696Z,22.40
2022-12-14T08:08:46.081Z,20.05
2022-12-14T08:11:14.096Z,19.38
2022-12-14T08:13:41.179Z,18.51
2022-12-14T08:16:11.754Z,18.31
2022-12-14T08:18:38.699Z,18.10
2022-12-14T08:21:07.823Z,18.02
2022-12-14T08:23:35.308Z,18.39
2022-12-14T08:26:03.659Z,19.05
2022-12-14T08:28:31.450Z,19.80
2022-12-14T08:31:05.596Z,20.04
2022-12-14T08:33:33.487Z,19.28
2022-12-14T08:36:10.744Z,19.93
2022-12-14T08:38:38.062Z,18.59
2022-12-14T08:41:07.084Z,18.64
2022-12-14T08:43:33.939Z,18.92
2022-12-14T08:46:01.315Z,19.60
2022-12-14T08:48:27.982Z,20.21
2022-12-14T08:50:54.614Z,20.51
2022-12-14T08:53:21.165Z,19.16
2022-12-14T08:55:47.810Z,20.08
2022-12-14T08:58:14.286Z,19.49
2022-12-14T09:00:40.878Z,19.46
2022-12-14T09:03:07.438Z,18.96
2022-12-14T09:05:35.238Z,20.27
2022-12-14T09:08:01.721Z,20.99
2022-12-14T09:10:28.220Z,20.51
2022-12-14T09:12:54.685Z,20.35
2022-12-14T09:15:21.162Z,21.86
2022-12-14T09:17:49.479Z,20.00
2022-12-14T09:20:16.134Z,18.81
2022-12-14T09:22:42.868Z,18.25
2022-12-14T09:25:09.489Z,17.95
2022-12-14T09:27:35.988Z,17.06
2022-12-14T09:30:02.618Z,17.65
2022-12-14T09:32:29.710Z,17.44
2022-12-14T09:34:56.334Z,15.91
2022-12-14T09:37:22.816Z,17.85
2022-12-14T09:39:49.294Z,17.63
2022-12-14T09:42:27.884Z,16.71
2022-12-14T09:45:13.139Z,16.33
2022-12-14T09:47:55.820Z,15.34
2022-12-14T09:50:24.417Z,15.17
2022-12-14T09:52:55.837Z,16.81
2022-12-14T09:55:37.412Z,14.78
2022-12-14T09:58:18.649Z,14.69
2022-12-14T10:01:03.417Z,14.33
2022-12-14T10:03:45.194Z,13.89
2022-12-14T10:06:36.230Z,13.93
2022-12-14T10:09:22.886Z,13.86
2022-12-14T10:12:23.256Z,13.87
2022-12-14T10:15:03.084Z,14.15
2022-12-14T10:18:56.909Z,14.08
2022-12-14T10:21:14.466Z,14.63
2022-12-14T10:23:56.574Z,15.19
2022-12-14T10:26:30.098Z,15.49
2022-12-14T10:29:12.894Z,15.40
2022-12-14T10:32:15.382Z,14.79
2022-12-14T10:34:42.516Z,14.04
2022-12-14T10:37:30.468Z,13.76
2022-12-14T10:40:15.599Z,13.03
2022-12-14T10:43:07.974Z,12.43
2022-12-14T10:45:48.115Z,12.74
2022-12-14T10:48:51.817Z,12.93
2022-12-14T10:51:40.707Z,13.35
2022-12-14T10:54:33.752Z,13.11
2022-12-14T10:57:00.418Z,14.38
2022-12-14T10:59:39.722Z,15.21
2022-12-14T11:02:20.737Z,14.84
2022-12-14T11:04:57.389Z,14.91
2022-12-14T11:07:40.157Z,15.16
2022-12-14T11:10:15.894Z,15.52
2022-12-14T11:12:54.408Z,14.31
2022-12-14T11:15:29.685Z,14.54
2022-12-14T11:18:02.888Z,14.34
2022-12-14T11:20:29.439Z,13.76
2022-12-14T11:23:00.043Z,12.97
2022-12-14T11:25:31.757Z,12.73
2022-12-14T11:28:03.660Z,12.51
2022-12-14T11:30:30.278Z,12.36
2022-12-14T11:32:57.324Z,13.09
2022-12-14T11:35:24.042Z,12.93
2022-12-14T11:37:58.885Z,13.07
2022-12-14T11:40:27.724Z,13.07
2022-12-14T11:43:03.048Z,12.56
2022-12-14T11:45:32.771Z,11.66
2022-12-14T11:48:32.108Z,12.69
2022-12-14T11:51:13.338Z,13.05
2022-12-14T11:53:40.863Z,12.13
2022-12-14T11:56:15.157Z,13.33
2022-12-14T11:58:53.524Z,13.16
2022-12-14T12:01:26.321Z,13.84
2022-12-14T12:03:57.742Z,14.06
2022-12-14T12:06:27.354Z,14.37
2022-12-14T12:09:01.305Z,14.43
2022-12-14T12:11:31.876Z,13.81
2022-12-14T12:14:25.596Z,12.68
2022-12-14T12:16:52.155Z,13.07
2022-12-14T12:19:31.898Z,13.46
2022-12-14T12:22:03.503Z,13.96
2022-12-14T12:25:24.899Z,13.66
2022-12-14T12:27:58.004Z,13.53
2022-12-14T12:30:28.060Z,13.42
2022-12-14T12:33:02.714Z,13.88
2022-12-14T12:35:51.565Z,14.40
2022-12-14T12:38:50.026Z,14.67
2022-12-14T12:41:32.213Z,16.23
2022-12-14T12:44:19.208Z,17.93
2022-12-14T12:47:38.415Z,14.45
2022-12-14T12:50:25.182Z,13.93
2022-12-14T12:53:06.764Z,13.83
2022-12-14T12:55:42.275Z,20.17
2022-12-14T12:58:31.024Z,17.82
2022-12-14T13:01:02.327Z,15.06
2022-12-14T13:03:38.883Z,14.73
2022-12-14T13:06:21.888Z,14.25
2022-12-14T13:09:02.152Z,14.90
2022-12-14T13:11:35.675Z,14.98
2022-12-14T13:14:15.092Z,14.43
2022-12-14T13:16:43.671Z,15.18
2022-12-14T13:19:54.636Z,15.00
2022-12-14T13:22:29.624Z,14.48
2022-12-14T13:25:26.476Z,15.70
2022-12-14T13:28:20.334Z,14.76
2022-12-14T13:31:03.679Z,15.40
2022-12-14T13:33:51.870Z,15.22
2022-12-14T13:36:47.491Z,14.86
2022-12-14T13:39:13.898Z,14.84
2022-12-14T13:42:23.399Z,14.65
2022-12-14T13:45:02.217Z,14.59
2022-12-14T13:47:36.018Z,14.72
2022-12-14T13:50:35.497Z,14.84
2022-12-14T13:53:17.126Z,14.56
2022-12-14T13:55:54.782Z,14.61
2022-12-14T13:58:40.987Z,15.07
2022-12-14T14:01:14.202Z,15.38
2022-12-14T14:03:44.232Z,15.16
2022-12-14T14:06:32.877Z,14.94
2022-12-14T14:08:59.417Z,15.26
2022-12-14T14:11:37.044Z,15.11
2022-12-14T14:14:18.342Z,15.81
2022-12-14T14:16:53.467Z,15.37
2022-12-14T14:19:24.860Z,14.91
2022-12-14T14:24:54.705Z,14.54
2022-12-14T14:27:26.556Z,13.64
2022-12-14T14:29:55.602Z,14.18
2022-12-14T14:32:32.362Z,14.97
2022-12-14T14:35:02.578Z,14.80
2022-12-14T14:37:35.772Z,14.27
2022-12-14T14:40:23.447Z,14.25
2022-12-14T14:43:04.361Z,13.76
2022-12-14T14:45:52.078Z,13.98
2022-12-14T14:48:41.317Z,14.04
2022-12-14T14:51:10.684Z,14.56
2022-12-14T14:53:39.346Z,14.00
2022-12-14T14:56:31.526Z,14.47
2022-12-14T14:59:19.736Z,15.32
2022-12-14T15:01:49.884Z,14.86
2022-12-14T15:04:23.904Z,14.99
2022-12-14T15:06:56.974Z,14.98
2022-12-14T15:10:01.884Z,14.80
2022-12-14T15:12:47.750Z,14.67
2022-12-14T15:15:35.652Z,14.23
2022-12-14T15:18:16.283Z,14.29
2022-12-14T15:21:01.810Z,14.78
2022-12-14T15:23:36.991Z,14.13
2022-12-14T15:26:16.581Z,13.84
2022-12-14T15:28:47.700Z,14.14
2022-12-14T15:31:14.795Z,14.33
2022-12-14T15:33:43.703Z,14.38
2022-12-14T15:36:19.917Z,14.19
2022-12-14T15:38:55.066Z,15.69
2022-12-14T15:41:24.419Z,16.14
2022-12-14T15:43:56.492Z,15.54
2022-12-14T15:46:27.744Z,15.24
2022-12-14T15:48:59.727Z,14.37
2022-12-14T15:51:44.335Z,14.00
2022-12-14T15:54:19.584Z,14.68
2022-12-14T15:56:51.751Z,14.99
2022-12-14T15:59:35.363Z,14.62
2022-12-14T16:02:30.851Z,14.21
2022-12-14T16:05:02.568Z,13.52
2022-12-14T16:07:45.519Z,13.96
2022-12-14T16:10:29.818Z,14.32
2022-12-14T16:13:06.370Z,14.12
2022-12-14T16:15:33.396Z,14.88
2022-12-14T16:18:02.944Z,14.77
2022-12-14T16:20:38.195Z,15.11
2022-12-14T16:23:06.435Z,15.06
2022-12-14T16:25:36.958Z,15.43
2022-12-14T16:28:33.907Z,16.23
2022-12-14T16:31:08.256Z,16.23
2022-12-14T16:33:37.139Z,16.55
2022-12-14T16:36:21.848Z,15.25
2022-12-14T16:39:03.094Z,15.13
2022-12-14T16:41:56.711Z,14.31
2022-12-14T16:44:28.964Z,14.52
2022-12-14T16:47:15.339Z,13.55
2022-12-14T16:50:03.482Z,13.89
2022-12-14T16:52:31.150Z,13.45
2022-12-14T16:55:09.561Z,13.73
2022-12-14T16:57:51.265Z,14.24
2022-12-14T17:00:27.113Z,15.18
2022-12-14T17:03:05.079Z,15.16
2022-12-14T17:05:36.276Z,14.09
2022-12-14T17:08:05.189Z,13.94
2022-12-14T17:10:31.646Z,14.43
2022-12-14T17:13:02.661Z,13.84
2022-12-14T17:15:35.086Z,13.53
2022-12-14T17:18:04.668Z,14.46
2022-12-14T17:20:34.948Z,14.80
2022-12-14T17:23:02.191Z,14.40
2022-12-14T17:25:31.645Z,14.69
2022-12-14T17:27:59.572Z,14.08
2022-12-14T17:30:26.566Z,14.56
2022-12-14T17:32:54.845Z,12.46
2022-12-14T17:35:27.838Z,12.61
2022-12-14T17:37:54.349Z,13.88
2022-12-14T17:40:21.706Z,14.67
2022-12-14T17:42:53.908Z,14.45
2022-12-14T17:45:24.005Z,15.51
2022-12-14T17:47:50.530Z,15.70
2022-12-14T17:50:18.198Z,15.55
2022-12-14T17:52:46.183Z,15.79
2022-12-14T17:55:18.284Z,16.06
2022-12-14T17:57:45.858Z,15.76
2022-12-14T18:00:21.662Z,14.90
2022-12-14T18:02:48.395Z,14.52
2022-12-14T18:05:21.802Z,13.97
2022-12-14T18:07:49.775Z,14.13
2022-12-14T18:10:17.332Z,15.40
2022-12-14T18:12:44.379Z,15.01
2022-12-14T18:15:26.100Z,15.68
2022-12-14T18:17:52.619Z,14.95
2022-12-14T18:20:21.845Z,14.03
2022-12-14T18:22:49.544Z,13.93
2022-12-14T18:25:36.779Z,14.26
2022-12-14T18:28:05.699Z,14.40
2022-12-14T18:30:43.121Z,14.73
2022-12-14T18:33:18.024Z,14.81
2022-12-14T18:35:46.388Z,15.25
2022-12-14T18:38:13.721Z,15.08
2022-12-14T18:40:44.700Z,15.58
2022-12-14T18:43:20.656Z,15.52
2022-12-14T18:45:47.448Z,14.56
2022-12-14T18:48:13.950Z,15.10
2022-12-14T18:50:43.051Z,14.35
2022-12-14T18:53:21.714Z,14.75
2022-12-14T18:55:48.723Z,15.80
2022-12-14T18:58:29.286Z,14.65
2022-12-14T19:00:58.765Z,15.52
2022-12-14T19:03:26.758Z,15.12
2022-12-14T19:06:26.853Z,14.39
2022-12-14T19:08:49.608Z,15.26
2022-12-14T19:11:31.229Z,15.54
2022-12-14T19:13:58.072Z,15.74
2022-12-14T19:16:24.709Z,15.04
2022-12-14T19:18:51.334Z,14.36
2022-12-14T19:21:18.882Z,14.74
2022-12-14T19:23:45.934Z,14.42
2022-12-14T19:26:12.440Z,16.53
2022-12-14T19:28:38.972Z,16.45
2022-12-14T19:31:05.522Z,15.40
2022-12-14T19:33:32.642Z,15.24
2022-12-14T19:35:59.482Z,14.98
2022-12-14T19:38:25.956Z,15.02
2022-12-14T19:41:02.500Z,14.59
2022-12-14T19:43:29.566Z,14.32
2022-12-14T19:45:56.600Z,14.61
2022-12-14T19:48:23.128Z,14.12
2022-12-14T19:50:49.861Z,14.24
2022-12-14T19:53:21.592Z,14.50
2022-12-14T19:55:53.701Z,14.68
2022-12-14T19:58:20.901Z,16.23
2022-12-14T20:00:47.906Z,14.97
2022-12-14T20:03:14.549Z,15.39
2022-12-14T20:05:41.085Z,15.72
2022-12-14T20:08:07.776Z,17.33
2022-12-14T20:10:36.267Z,18.12
2022-12-14T20:13:02.765Z,17.55
2022-12-14T20:15:29.349Z,15.71
2022-12-14T20:17:55.817Z,17.59
2022-12-14T20:20:23.139Z,18.08
2022-12-14T20:22:49.653Z,18.98
2022-12-14T20:25:16.144Z,18.02
2022-12-14T20:27:42.723Z,16.94
2022-12-14T20:30:09.898Z,16.60
2022-12-14T20:32:36.419Z,16.90
2022-12-14T20:35:02.918Z,16.42
2022-12-14T20:37:29.465Z,15.35
2022-12-14T20:39:55.914Z,14.09
2022-12-14T20:42:22.418Z,14.28
2022-12-14T20:44:49.416Z,14.04
2022-12-14T20:47:16.224Z,13.92
2022-12-14T20:49:42.746Z,13.55
2022-12-14T20:52:09.215Z,14.08
2022-12-14T20:54:35.691Z,14.89
2022-12-14T20:57:02.186Z,14.87
2022-12-14T20:59:28.699Z,15.33
2022-12-14T21:01:56.587Z,14.71
2022-12-14T21:04:23.367Z,15.97
2022-12-14T21:06:50.050Z,16.94
2022-12-14T21:09:16.559Z,16.85
2022-12-14T21:11:46.713Z,16.64
2022-12-14T21:14:14.349Z,16.77
2022-12-14T21:16:41.932Z,17.88
2022-12-14T21:19:10.996Z,18.77
2022-12-14T21:21:37.520Z,19.55
2022-12-14T21:24:04.063Z,20.79
2022-12-14T21:26:30.543Z,21.54
2022-12-14T21:28:57.001Z,21.15
2022-12-14T21:31:23.627Z,21.43
2022-12-14T21:33:50.234Z,20.63
2022-12-14T21:36:16.745Z,20.81
2022-12-14T21:38:43.208Z,21.00
2022-12-14T21:41:11.336Z,20.81
2022-12-14T21:43:37.818Z,21.44
2022-12-14T21:46:04.828Z,20.75
2022-12-14T21:48:31.429Z,20.52
2022-12-14T21:50:58.206Z,20.00
2022-12-14T21:53:28.843Z,20.40
2022-12-14T21:55:58.223Z,19.26
2022-12-14T21:58:24.706Z,19.08
2022-12-14T22:00:51.231Z,18.31
2022-12-14T22:03:17.789Z,18.01
2022-12-14T22:05:44.319Z,17.80
2022-12-14T22:08:10.800Z,17.60
2022-12-14T22:10:37.280Z,18.32
2022-12-14T22:13:03.740Z,17.70
2022-12-14T22:15:30.247Z,17.42
2022-12-14T22:17:56.695Z,17.33
2022-12-14T22:20:23.252Z,18.19
2022-12-14T22:22:49.686Z,17.38
2022-12-14T22:25:16.210Z,16.75
2022-12-14T22:27:42.761Z,16.32
2022-12-14T22:30:09.598Z,16.78
2022-12-14T22:32:36.038Z,16.29
2022-12-14T22:35:02.581Z,16.09
2022-12-14T22:37:29.053Z,16.14
2022-12-14T22:39:55.569Z,15.60
2022-12-14T22:42:22.051Z,16.73
2022-12-14T22:44:48.693Z,16.42
2022-12-14T22:47:15.195Z,16.90
2022-12-14T22:49:41.758Z,18.97
2022-12-14T22:52:08.229Z,21.36
2022-12-14T22:54:38.161Z,18.11
2022-12-14T22:57:13.581Z,18.16
2022-12-14T22:59:46.362Z,20.83
2022-12-14T23:02:13.123Z,19.07
2022-12-14T23:04:39.840Z,17.54
2022-12-14T23:07:06.370Z,17.49
2022-12-14T23:09:33.381Z,15.94
2022-12-14T23:11:59.857Z,15.35
2022-12-14T23:14:26.361Z,16.97
2022-12-14T23:16:52.913Z,16.98
2022-12-14T23:19:19.395Z,15.14
2022-12-14T23:21:45.905Z,17.19
2022-12-14T23:24:12.393Z,16.20
2022-12-14T23:26:38.864Z,15.55
2022-12-14T23:29:05.416Z,15.43
2022-12-14T23:31:31.928Z,15.95
2022-12-14T23:33:58.412Z,15.59
2022-12-14T23:36:25.069Z,16.16
2022-12-14T23:38:51.573Z,15.29
2022-12-14T23:41:18.033Z,13.62
2022-12-14T23:43:44.768Z,14.02
2022-12-14T23:46:11.440Z,13.94
2022-12-14T23:48:37.927Z,13.84
2022-12-14T23:51:04.597Z,14.32
2022-12-14T23:53:31.557Z,13.99
2022-12-14T23:55:59.998Z,14.74
2022-12-14T23:58:26.482Z,14.88
